sensor_id;sensor_type;location;lat;lon;timestamp;temperature;humidity
8261;DHT22;64115;50.170;8.242;2023-01-20T00:00:45;-3.70;99.90
8261;DHT22;64115;50.170;8.242;2023-01-20T00:03:12;-3.80;99.90
8261;DHT22;64115;50.170;8.242;2023-01-20T00:05:38;-3.90;99.90
8261;DHT22;64115;50.170;8.242;2023-01-20T00:08:07;-3.90;99.90
8261;DHT22;64115;50.170;8.242;2023-01-20T00:10:36;-3.90;99.90
8261;DHT22;64115;50.170;8.242;2023-01-20T00:13:03;-3.90;99.90
8261;DHT22;64115;50.170;8.242;2023-01-20T00:15:30;-3.90;99.90
8261;DHT22;64115;50.170;8.242;2023-01-20T00:17:57;-3.90;99.90
8261;DHT22;64115;50.170;8.242;2023-01-20T00:20:24;-4.00;99.90
8261;DHT22;64115;50.170;8.242;2023-01-20T00:22:51;-4.00;99.90
8261;DHT22;64115;50.170;8.242;2023-01-20T00:25:19;-4.00;99.90
8261;DHT22;64115;50.170;8.242;2023-01-20T00:27:46;-4.00;99.90
8261;DHT22;64115;50.170;8.242;2023-01-20T00:30:14;-4.00;99.90
8261;DHT22;64115;50.170;8.242;2023-01-20T00:32:41;-4.00;99.90
8261;DHT22;64115;50.170;8.242;2023-01-20T00:35:10;-4.00;99.90
8261;DHT22;64115;50.170;8.242;2023-01-20T00:37:37;-4.00;99.90
8261;DHT22;64115;50.170;8.242;2023-01-20T00:40:05;-4.00;99.90
8261;DHT22;64115;50.170;8.242;2023-01-20T00:42:34;-3.90;99.90
8261;DHT22;64115;50.170;8.242;2023-01-20T00:45:01;-4.00;99.90
8261;DHT22;64115;50.170;8.242;2023-01-20T00:47:28;-4.00;99.90
8261;DHT22;64115;50.170;8.242;2023-01-20T00:49:55;-4.00;99.90
8261;DHT22;64115;50.170;8.242;2023-01-20T00:52:22;-4.00;99.90
8261;DHT22;64115;50.170;8.242;2023-01-20T00:54:50;-4.00;99.90
8261;DHT22;64115;50.170;8.242;2023-01-20T00:57:17;-4.00;99.90
8261;DHT22;64115;50.170;8.242;2023-01-20T00:59:45;-4.00;99.90
8261;DHT22;64115;50.170;8.242;2023-01-20T01:02:12;-4.00;99.90
8261;DHT22;64115;50.170;8.242;2023-01-20T01:04:39;-4.00;99.90
8261;DHT22;64115;50.170;8.242;2023-01-20T01:07:06;-4.00;99.90
8261;DHT22;64115;50.170;8.242;2023-01-20T01:09:33;-4.00;99.90
8261;DHT22;64115;50.170;8.242;2023-01-20T01:12:00;-4.10;99.90
8261;DHT22;64115;50.170;8.242;2023-01-20T01:14:29;-4.10;99.90
8261;DHT22;64115;50.170;8.242;2023-01-20T01:16:58;-4.10;99.90
8261;DHT22;64115;50.170;8.242;2023-01-20T01:19:25;-4.10;99.90
8261;DHT22;64115;50.170;8.242;2023-01-20T01:21:52;-4.20;99.90
8261;DHT22;64115;50.170;8.242;2023-01-20T01:24:19;-4.30;99.90
8261;DHT22;64115;50.170;8.242;2023-01-20T01:26:46;-4.40;99.90
8261;DHT22;64115;50.170;8.242;2023-01-20T01:29:13;-4.40;99.90
8261;DHT22;64115;50.170;8.242;2023-01-20T01:31:40;-4.40;99.90
8261;DHT22;64115;50.170;8.242;2023-01-20T01:34:08;-4.40;99.90
8261;DHT22;64115;50.170;8.242;2023-01-20T01:36:35;-4.40;99.90
8261;DHT22;64115;50.170;8.242;2023-01-20T01:39:02;-4.30;99.90
8261;DHT22;64115;50.170;8.242;2023-01-20T01:41:30;-4.30;99.90
8261;DHT22;64115;50.170;8.242;2023-01-20T01:44:02;-4.30;99.90
8261;DHT22;64115;50.170;8.242;2023-01-20T01:46:30;-4.30;99.90
8261;DHT22;64115;50.170;8.242;2023-01-20T01:48:58;-4.30;99.90
8261;DHT22;64115;50.170;8.242;2023-01-20T01:51:32;-4.30;99.90
8261;DHT22;64115;50.170;8.242;2023-01-20T01:54:03;-4.30;99.90
8261;DHT22;64115;50.170;8.242;2023-01-20T01:56:32;-4.30;99.90
8261;DHT22;64115;50.170;8.242;2023-01-20T01:59:00;-4.30;99.90
8261;DHT22;64115;50.170;8.242;2023-01-20T02:01:28;-4.30;99.90
8261;DHT22;64115;50.170;8.242;2023-01-20T02:03:59;-4.30;99.90
8261;DHT22;64115;50.170;8.242;2023-01-20T02:06:33;-4.30;99.90
8261;DHT22;64115;50.170;8.242;2023-01-20T02:09:03;-4.30;99.90
8261;DHT22;64115;50.170;8.242;2023-01-20T02:11:35;-4.40;99.90
8261;DHT22;64115;50.170;8.242;2023-01-20T02:14:03;-4.40;99.90
8261;DHT22;64115;50.170;8.242;2023-01-20T02:16:38;-4.40;99.90
8261;DHT22;64115;50.170;8.242;2023-01-20T02:19:26;-4.50;99.90
8261;DHT22;64115;50.170;8.242;2023-01-20T02:22:09;-4.50;99.90
8261;DHT22;64115;50.170;8.242;2023-01-20T02:25:04;-4.40;99.90
8261;DHT22;64115;50.170;8.242;2023-01-20T02:28:08;-4.40;99.90
8261;DHT22;64115;50.170;8.242;2023-01-20T02:31:13;-4.40;99.90
8261;DHT22;64115;50.170;8.242;2023-01-20T02:33:48;-4.40;99.90
8261;DHT22;64115;50.170;8.242;2023-01-20T02:36:23;-4.30;99.90
8261;DHT22;64115;50.170;8.242;2023-01-20T02:38:56;-4.30;99.90
8261;DHT22;64115;50.170;8.242;2023-01-20T02:41:30;-4.30;99.90
8261;DHT22;64115;50.170;8.242;2023-01-20T02:44:07;-4.30;99.90
8261;DHT22;64115;50.170;8.242;2023-01-20T02:46:37;-4.30;99.90
8261;DHT22;64115;50.170;8.242;2023-01-20T02:49:12;-4.30;99.90
8261;DHT22;64115;50.170;8.242;2023-01-20T02:51:43;-4.30;99.90
8261;DHT22;64115;50.170;8.242;2023-01-20T02:54:14;-4.30;99.90
8261;DHT22;64115;50.170;8.242;2023-01-20T02:56:42;-4.30;99.90
8261;DHT22;64115;50.170;8.242;2023-01-20T02:59:11;-4.30;99.90
8261;DHT22;64115;50.170;8.242;2023-01-20T03:01:41;-4.30;99.90
8261;DHT22;64115;50.170;8.242;2023-01-20T03:04:12;-4.30;99.90
8261;DHT22;64115;50.170;8.242;2023-01-20T03:06:45;-4.20;99.90
8261;DHT22;64115;50.170;8.242;2023-01-20T03:09:18;-4.20;99.90
8261;DHT22;64115;50.170;8.242;2023-01-20T03:11:52;-4.10;99.90
8261;DHT22;64115;50.170;8.242;2023-01-20T03:14:22;-4.00;99.90
8261;DHT22;64115;50.170;8.242;2023-01-20T03:16:49;-3.80;99.90
8261;DHT22;64115;50.170;8.242;2023-01-20T03:19:18;-3.80;99.90
8261;DHT22;64115;50.170;8.242;2023-01-20T03:21:45;-3.70;99.90
8261;DHT22;64115;50.170;8.242;2023-01-20T03:24:12;-3.70;99.90
8261;DHT22;64115;50.170;8.242;2023-01-20T03:26:39;-3.60;99.90
8261;DHT22;64115;50.170;8.242;2023-01-20T03:29:08;-3.50;99.90
8261;DHT22;64115;50.170;8.242;2023-01-20T03:31:39;-3.40;99.90
8261;DHT22;64115;50.170;8.242;2023-01-20T03:34:09;-3.40;99.90
8261;DHT22;64115;50.170;8.242;2023-01-20T03:36:39;-3.40;99.90
8261;DHT22;64115;50.170;8.242;2023-01-20T03:39:06;-3.50;99.90
8261;DHT22;64115;50.170;8.242;2023-01-20T03:41:47;-3.60;99.90
8261;DHT22;64115;50.170;8.242;2023-01-20T03:44:21;-3.60;99.90
8261;DHT22;64115;50.170;8.242;2023-01-20T03:46:52;-3.60;99.90
8261;DHT22;64115;50.170;8.242;2023-01-20T03:49:27;-3.70;99.90
8261;DHT22;64115;50.170;8.242;2023-01-20T03:52:01;-3.70;99.90
8261;DHT22;64115;50.170;8.242;2023-01-20T03:54:33;-3.70;99.90
8261;DHT22;64115;50.170;8.242;2023-01-20T03:57:07;-3.80;99.90
8261;DHT22;64115;50.170;8.242;2023-01-20T03:59:37;-3.70;99.90
8261;DHT22;64115;50.170;8.242;2023-01-20T04:02:07;-3.70;99.90
8261;DHT22;64115;50.170;8.242;2023-01-20T04:04:37;-3.70;99.90
8261;DHT22;64115;50.170;8.242;2023-01-20T04:07:08;-3.70;99.90
8261;DHT22;64115;50.170;8.242;2023-01-20T04:09:39;-3.60;99.90
8261;DHT22;64115;50.170;8.242;2023-01-20T04:12:08;-3.50;99.90
8261;DHT22;64115;50.170;8.242;2023-01-20T04:14:35;-3.50;99.90
8261;DHT22;64115;50.170;8.242;2023-01-20T04:17:03;-3.40;99.90
8261;DHT22;64115;50.170;8.242;2023-01-20T04:19:32;-3.40;99.90
8261;DHT22;64115;50.170;8.242;2023-01-20T04:22:02;-3.20;99.90
8261;DHT22;64115;50.170;8.242;2023-01-20T04:24:36;-3.10;99.90
8261;DHT22;64115;50.170;8.242;2023-01-20T04:27:06;-3.00;99.90
8261;DHT22;64115;50.170;8.242;2023-01-20T04:29:33;-2.90;99.90
8261;DHT22;64115;50.170;8.242;2023-01-20T04:32:00;-2.90;99.90
8261;DHT22;64115;50.170;8.242;2023-01-20T04:34:28;-2.80;99.90
8261;DHT22;64115;50.170;8.242;2023-01-20T04:36:55;-2.80;99.90
8261;DHT22;64115;50.170;8.242;2023-01-20T04:39:22;-2.70;99.90
8261;DHT22;64115;50.170;8.242;2023-01-20T04:41:50;-2.60;99.90
8261;DHT22;64115;50.170;8.242;2023-01-20T04:44:17;-2.60;99.90
8261;DHT22;64115;50.170;8.242;2023-01-20T04:46:44;-2.50;99.90
8261;DHT22;64115;50.170;8.242;2023-01-20T04:49:12;-2.50;99.90
8261;DHT22;64115;50.170;8.242;2023-01-20T04:51:39;-2.50;99.90
8261;DHT22;64115;50.170;8.242;2023-01-20T04:54:06;-2.50;99.90
8261;DHT22;64115;50.170;8.242;2023-01-20T04:56:33;-2.40;99.90
8261;DHT22;64115;50.170;8.242;2023-01-20T04:59:02;-2.40;99.90
8261;DHT22;64115;50.170;8.242;2023-01-20T05:01:29;-2.40;99.90
8261;DHT22;64115;50.170;8.242;2023-01-20T05:03:56;-2.30;99.90
8261;DHT22;64115;50.170;8.242;2023-01-20T05:06:23;-2.30;99.90
8261;DHT22;64115;50.170;8.242;2023-01-20T05:08:50;-2.30;99.90
8261;DHT22;64115;50.170;8.242;2023-01-20T05:11:17;-2.30;99.90
8261;DHT22;64115;50.170;8.242;2023-01-20T05:13:44;-2.30;99.90
8261;DHT22;64115;50.170;8.242;2023-01-20T05:16:12;-2.30;99.90
8261;DHT22;64115;50.170;8.242;2023-01-20T05:18:39;-2.30;99.90
8261;DHT22;64115;50.170;8.242;2023-01-20T05:21:06;-2.30;99.90
8261;DHT22;64115;50.170;8.242;2023-01-20T05:23:34;-2.30;99.90
8261;DHT22;64115;50.170;8.242;2023-01-20T05:26:01;-2.30;99.90
8261;DHT22;64115;50.170;8.242;2023-01-20T05:28:28;-2.30;99.90
8261;DHT22;64115;50.170;8.242;2023-01-20T05:30:55;-2.40;99.90
8261;DHT22;64115;50.170;8.242;2023-01-20T05:33:23;-2.40;99.90
8261;DHT22;64115;50.170;8.242;2023-01-20T05:35:51;-2.50;99.90
8261;DHT22;64115;50.170;8.242;2023-01-20T05:38:17;-2.40;99.90
8261;DHT22;64115;50.170;8.242;2023-01-20T05:40:44;-2.40;99.90
8261;DHT22;64115;50.170;8.242;2023-01-20T05:43:11;-2.40;99.90
8261;DHT22;64115;50.170;8.242;2023-01-20T05:45:38;-2.40;99.90
8261;DHT22;64115;50.170;8.242;2023-01-20T05:48:07;-2.40;99.90
8261;DHT22;64115;50.170;8.242;2023-01-20T05:50:35;-2.40;99.90
8261;DHT22;64115;50.170;8.242;2023-01-20T05:53:02;-2.40;99.90
8261;DHT22;64115;50.170;8.242;2023-01-20T05:55:30;-2.40;99.90
8261;DHT22;64115;50.170;8.242;2023-01-20T05:58:00;-2.40;99.90
8261;DHT22;64115;50.170;8.242;2023-01-20T06:00:27;-2.30;99.90
8261;DHT22;64115;50.170;8.242;2023-01-20T06:02:54;-2.30;99.90
8261;DHT22;64115;50.170;8.242;2023-01-20T06:05:21;-2.20;99.90
8261;DHT22;64115;50.170;8.242;2023-01-20T06:07:49;-2.20;99.90
8261;DHT22;64115;50.170;8.242;2023-01-20T06:10:17;-2.20;99.90
8261;DHT22;64115;50.170;8.242;2023-01-20T06:12:50;-2.20;99.90
8261;DHT22;64115;50.170;8.242;2023-01-20T06:15:17;-2.10;99.90
8261;DHT22;64115;50.170;8.242;2023-01-20T06:17:44;-2.00;99.90
8261;DHT22;64115;50.170;8.242;2023-01-20T06:20:12;-2.00;99.90
8261;DHT22;64115;50.170;8.242;2023-01-20T06:22:39;-2.00;99.90
8261;DHT22;64115;50.170;8.242;2023-01-20T06:25:07;-2.00;99.90
8261;DHT22;64115;50.170;8.242;2023-01-20T06:27:34;-2.00;99.90
8261;DHT22;64115;50.170;8.242;2023-01-20T06:30:02;-2.00;99.90
8261;DHT22;64115;50.170;8.242;2023-01-20T06:32:29;-2.00;99.90
8261;DHT22;64115;50.170;8.242;2023-01-20T06:34:56;-2.00;99.90
8261;DHT22;64115;50.170;8.242;2023-01-20T06:37:23;-2.00;99.90
8261;DHT22;64115;50.170;8.242;2023-01-20T06:39:50;-2.00;99.90
8261;DHT22;64115;50.170;8.242;2023-01-20T06:42:18;-2.00;99.90
8261;DHT22;64115;50.170;8.242;2023-01-20T06:44:46;-1.90;99.90
8261;DHT22;64115;50.170;8.242;2023-01-20T06:47:13;-1.90;99.90
8261;DHT22;64115;50.170;8.242;2023-01-20T06:49:39;-1.90;99.90
8261;DHT22;64115;50.170;8.242;2023-01-20T06:52:06;-1.80;99.90
8261;DHT22;64115;50.170;8.242;2023-01-20T06:54:34;-1.80;99.90
8261;DHT22;64115;50.170;8.242;2023-01-20T06:57:01;-1.80;99.90
8261;DHT22;64115;50.170;8.242;2023-01-20T06:59:29;-1.80;99.90
8261;DHT22;64115;50.170;8.242;2023-01-20T07:01:56;-1.90;99.90
8261;DHT22;64115;50.170;8.242;2023-01-20T07:04:23;-1.90;99.90
8261;DHT22;64115;50.170;8.242;2023-01-20T07:06:50;-1.80;99.90
8261;DHT22;64115;50.170;8.242;2023-01-20T07:09:17;-1.80;99.90
8261;DHT22;64115;50.170;8.242;2023-01-20T07:11:44;-1.80;99.90
8261;DHT22;64115;50.170;8.242;2023-01-20T07:14:11;-1.80;99.90
8261;DHT22;64115;50.170;8.242;2023-01-20T07:16:39;-1.90;99.90
8261;DHT22;64115;50.170;8.242;2023-01-20T07:19:06;-1.90;99.90
8261;DHT22;64115;50.170;8.242;2023-01-20T07:21:33;-2.00;99.90
8261;DHT22;64115;50.170;8.242;2023-01-20T07:24:00;-2.00;99.90
8261;DHT22;64115;50.170;8.242;2023-01-20T07:26:28;-2.00;99.90
8261;DHT22;64115;50.170;8.242;2023-01-20T07:28:57;-1.90;99.90
8261;DHT22;64115;50.170;8.242;2023-01-20T07:31:25;-1.90;99.90
8261;DHT22;64115;50.170;8.242;2023-01-20T07:33:55;-1.90;99.90
8261;DHT22;64115;50.170;8.242;2023-01-20T07:36:22;-1.90;99.90
8261;DHT22;64115;50.170;8.242;2023-01-20T07:38:49;-1.90;99.90
8261;DHT22;64115;50.170;8.242;2023-01-20T07:41:17;-2.00;99.90
8261;DHT22;64115;50.170;8.242;2023-01-20T07:43:45;-2.00;99.90
8261;DHT22;64115;50.170;8.242;2023-01-20T07:46:13;-2.00;99.90
8261;DHT22;64115;50.170;8.242;2023-01-20T07:48:40;-2.10;99.90
8261;DHT22;64115;50.170;8.242;2023-01-20T07:51:10;-2.20;99.90
8261;DHT22;64115;50.170;8.242;2023-01-20T07:53:39;-2.20;99.90
8261;DHT22;64115;50.170;8.242;2023-01-20T07:56:09;-2.20;99.90
8261;DHT22;64115;50.170;8.242;2023-01-20T07:58:37;-2.20;99.90
8261;DHT22;64115;50.170;8.242;2023-01-20T08:01:18;-2.30;99.90
8261;DHT22;64115;50.170;8.242;2023-01-20T08:03:45;-2.30;99.90
8261;DHT22;64115;50.170;8.242;2023-01-20T08:06:17;-2.40;99.90
8261;DHT22;64115;50.170;8.242;2023-01-20T08:08:44;-2.40;99.90
8261;DHT22;64115;50.170;8.242;2023-01-20T08:11:13;-2.50;99.90
8261;DHT22;64115;50.170;8.242;2023-01-20T08:13:40;-2.60;99.90
8261;DHT22;64115;50.170;8.242;2023-01-20T08:16:09;-2.60;99.90
8261;DHT22;64115;50.170;8.242;2023-01-20T08:18:37;-2.60;99.90
8261;DHT22;64115;50.170;8.242;2023-01-20T08:21:05;-2.50;99.90
8261;DHT22;64115;50.170;8.242;2023-01-20T08:23:35;-2.40;99.90
8261;DHT22;64115;50.170;8.242;2023-01-20T08:26:04;-2.50;99.90
8261;DHT22;64115;50.170;8.242;2023-01-20T08:28:32;-2.50;99.90
8261;DHT22;64115;50.170;8.242;2023-01-20T08:31:03;-2.50;99.90
8261;DHT22;64115;50.170;8.242;2023-01-20T08:33:30;-2.50;99.90
8261;DHT22;64115;50.170;8.242;2023-01-20T08:36:03;-2.50;99.90
8261;DHT22;64115;50.170;8.242;2023-01-20T08:38:30;-2.50;99.90
8261;DHT22;64115;50.170;8.242;2023-01-20T08:40:59;-2.50;99.90
8261;DHT22;64115;50.170;8.242;2023-01-20T08:43:26;-2.40;99.90
8261;DHT22;64115;50.170;8.242;2023-01-20T08:46:00;-2.30;99.90
8261;DHT22;64115;50.170;8.242;2023-01-20T08:48:27;-2.20;99.90
8261;DHT22;64115;50.170;8.242;2023-01-20T08:50:55;-2.10;99.90
8261;DHT22;64115;50.170;8.242;2023-01-20T08:53:22;-2.10;99.90
8261;DHT22;64115;50.170;8.242;2023-01-20T08:55:56;-2.10;99.90
8261;DHT22;64115;50.170;8.242;2023-01-20T08:58:25;-2.20;99.90
8261;DHT22;64115;50.170;8.242;2023-01-20T09:00:53;-2.20;99.90
8261;DHT22;64115;50.170;8.242;2023-01-20T09:03:20;-2.20;99.90
8261;DHT22;64115;50.170;8.242;2023-01-20T09:05:48;-2.10;99.90
8261;DHT22;64115;50.170;8.242;2023-01-20T09:08:16;-2.10;99.90
8261;DHT22;64115;50.170;8.242;2023-01-20T09:10:43;-2.00;99.90
8261;DHT22;64115;50.170;8.242;2023-01-20T09:13:10;-1.80;99.90
8261;DHT22;64115;50.170;8.242;2023-01-20T09:15:38;-1.70;99.90
8261;DHT22;64115;50.170;8.242;2023-01-20T09:18:05;-1.50;99.90
8261;DHT22;64115;50.170;8.242;2023-01-20T09:20:32;-1.30;99.90
8261;DHT22;64115;50.170;8.242;2023-01-20T09:23:00;-1.20;99.90
8261;DHT22;64115;50.170;8.242;2023-01-20T09:25:28;-1.10;99.90
8261;DHT22;64115;50.170;8.242;2023-01-20T09:27:55;-1.00;99.90
8261;DHT22;64115;50.170;8.242;2023-01-20T09:30:25;-0.80;99.90
8261;DHT22;64115;50.170;8.242;2023-01-20T09:32:54;-0.80;99.90
8261;DHT22;64115;50.170;8.242;2023-01-20T09:35:25;-0.70;99.90
8261;DHT22;64115;50.170;8.242;2023-01-20T09:37:52;-0.60;99.90
8261;DHT22;64115;50.170;8.242;2023-01-20T09:40:42;-0.50;99.90
8261;DHT22;64115;50.170;8.242;2023-01-20T09:43:37;-0.30;99.90
8261;DHT22;64115;50.170;8.242;2023-01-20T09:46:34;-0.20;99.90
8261;DHT22;64115;50.170;8.242;2023-01-20T09:49:17;-0.10;99.90
8261;DHT22;64115;50.170;8.242;2023-01-20T09:52:09;-0.10;99.90
8261;DHT22;64115;50.170;8.242;2023-01-20T09:54:59;-0.20;99.90
8261;DHT22;64115;50.170;8.242;2023-01-20T09:57:31;-0.30;99.90
8261;DHT22;64115;50.170;8.242;2023-01-20T10:00:06;-0.30;99.90
8261;DHT22;64115;50.170;8.242;2023-01-20T10:02:35;-0.30;99.90
8261;DHT22;64115;50.170;8.242;2023-01-20T10:05:10;-0.20;99.90
8261;DHT22;64115;50.170;8.242;2023-01-20T10:07:42;-0.10;99.90
8261;DHT22;64115;50.170;8.242;2023-01-20T10:10:17;0.10;99.90
8261;DHT22;64115;50.170;8.242;2023-01-20T10:12:49;0.30;99.90
8261;DHT22;64115;50.170;8.242;2023-01-20T10:15:21;0.20;99.90
8261;DHT22;64115;50.170;8.242;2023-01-20T10:17:53;0.10;99.90
8261;DHT22;64115;50.170;8.242;2023-01-20T10:20:28;0.00;99.90
8261;DHT22;64115;50.170;8.242;2023-01-20T10:23:01;-0.10;99.90
8261;DHT22;64115;50.170;8.242;2023-01-20T10:25:36;-0.10;99.90
8261;DHT22;64115;50.170;8.242;2023-01-20T10:28:08;0.00;99.90
8261;DHT22;64115;50.170;8.242;2023-01-20T10:31:09;0.10;99.90
8261;DHT22;64115;50.170;8.242;2023-01-20T10:33:44;0.20;99.90
8261;DHT22;64115;50.170;8.242;2023-01-20T10:36:17;0.30;99.90
8261;DHT22;64115;50.170;8.242;2023-01-20T10:38:52;0.40;99.90
8261;DHT22;64115;50.170;8.242;2023-01-20T10:41:25;0.40;99.90
8261;DHT22;64115;50.170;8.242;2023-01-20T10:44:05;0.40;99.90
8261;DHT22;64115;50.170;8.242;2023-01-20T10:47:17;0.50;99.90
8261;DHT22;64115;50.170;8.242;2023-01-20T10:56:06;0.60;99.90
8261;DHT22;64115;50.170;8.242;2023-01-20T10:58:39;0.60;99.90
8261;DHT22;64115;50.170;8.242;2023-01-20T11:01:14;0.70;99.90
8261;DHT22;64115;50.170;8.242;2023-01-20T11:03:43;0.70;99.90
8261;DHT22;64115;50.170;8.242;2023-01-20T11:06:17;0.60;99.90
8261;DHT22;64115;50.170;8.242;2023-01-20T11:08:47;0.70;99.90
8261;DHT22;64115;50.170;8.242;2023-01-20T11:11:17;0.70;99.90
8261;DHT22;64115;50.170;8.242;2023-01-20T11:13:45;0.70;99.90
8261;DHT22;64115;50.170;8.242;2023-01-20T11:16:16;0.50;99.90
8261;DHT22;64115;50.170;8.242;2023-01-20T11:18:54;0.30;99.90
8261;DHT22;64115;50.170;8.242;2023-01-20T11:21:23;0.30;99.90
8261;DHT22;64115;50.170;8.242;2023-01-20T11:23:52;0.20;99.90
8261;DHT22;64115;50.170;8.242;2023-01-20T11:26:23;0.20;99.90
8261;DHT22;64115;50.170;8.242;2023-01-20T11:28:53;0.40;99.90
8261;DHT22;64115;50.170;8.242;2023-01-20T11:31:32;0.40;99.90
8261;DHT22;64115;50.170;8.242;2023-01-20T11:34:07;0.30;99.90
8261;DHT22;64115;50.170;8.242;2023-01-20T11:36:44;0.30;99.90
8261;DHT22;64115;50.170;8.242;2023-01-20T11:39:25;0.40;99.90
8261;DHT22;64115;50.170;8.242;2023-01-20T11:42:08;0.60;99.90
8261;DHT22;64115;50.170;8.242;2023-01-20T11:44:41;0.90;99.90
8261;DHT22;64115;50.170;8.242;2023-01-20T11:47:24;1.10;99.90
8261;DHT22;64115;50.170;8.242;2023-01-20T11:50:18;1.10;99.90
8261;DHT22;64115;50.170;8.242;2023-01-20T11:52:45;1.20;99.90
8261;DHT22;64115;50.170;8.242;2023-01-20T11:57:51;1.40;99.90
8261;DHT22;64115;50.170;8.242;2023-01-20T12:00:31;1.40;99.90
8261;DHT22;64115;50.170;8.242;2023-01-20T12:03:03;1.40;99.90
8261;DHT22;64115;50.170;8.242;2023-01-20T12:05:44;1.30;99.90
8261;DHT22;64115;50.170;8.242;2023-01-20T12:08:17;1.20;99.90
8261;DHT22;64115;50.170;8.242;2023-01-20T12:10:47;1.10;99.90
8261;DHT22;64115;50.170;8.242;2023-01-20T12:13:18;1.20;99.90
8261;DHT22;64115;50.170;8.242;2023-01-20T12:15:49;1.00;99.90
8261;DHT22;64115;50.170;8.242;2023-01-20T12:18:22;0.90;99.90
8261;DHT22;64115;50.170;8.242;2023-01-20T12:20:59;0.80;99.90
8261;DHT22;64115;50.170;8.242;2023-01-20T12:23:35;0.80;99.90
8261;DHT22;64115;50.170;8.242;2023-01-20T12:26:12;0.90;99.90
8261;DHT22;64115;50.170;8.242;2023-01-20T12:28:46;1.00;99.90
8261;DHT22;64115;50.170;8.242;2023-01-20T12:31:17;1.10;99.90
8261;DHT22;64115;50.170;8.242;2023-01-20T12:33:47;1.10;99.90
8261;DHT22;64115;50.170;8.242;2023-01-20T12:39:16;0.90;99.90
8261;DHT22;64115;50.170;8.242;2023-01-20T12:42:04;1.00;99.90
8261;DHT22;64115;50.170;8.242;2023-01-20T12:44:40;0.80;99.90
8261;DHT22;64115;50.170;8.242;2023-01-20T12:47:24;0.70;99.90
8261;DHT22;64115;50.170;8.242;2023-01-20T12:50:03;0.80;99.90
8261;DHT22;64115;50.170;8.242;2023-01-20T12:52:46;0.80;99.90
8261;DHT22;64115;50.170;8.242;2023-01-20T12:55:25;0.90;99.90
8261;DHT22;64115;50.170;8.242;2023-01-20T12:58:06;1.10;99.90
8261;DHT22;64115;50.170;8.242;2023-01-20T13:00:48;1.10;99.90
8261;DHT22;64115;50.170;8.242;2023-01-20T13:03:30;1.00;99.90
8261;DHT22;64115;50.170;8.242;2023-01-20T13:06:20;0.90;99.90
8261;DHT22;64115;50.170;8.242;2023-01-20T13:08:58;0.80;99.90
8261;DHT22;64115;50.170;8.242;2023-01-20T13:11:42;0.60;99.90
8261;DHT22;64115;50.170;8.242;2023-01-20T13:14:16;0.40;99.90
8261;DHT22;64115;50.170;8.242;2023-01-20T13:16:48;0.40;99.90
8261;DHT22;64115;50.170;8.242;2023-01-20T13:19:27;0.40;99.90
8261;DHT22;64115;50.170;8.242;2023-01-20T13:21:58;0.30;99.90
8261;DHT22;64115;50.170;8.242;2023-01-20T13:24:28;0.30;99.90
8261;DHT22;64115;50.170;8.242;2023-01-20T13:26:56;0.30;99.90
8261;DHT22;64115;50.170;8.242;2023-01-20T13:29:41;0.30;99.90
8261;DHT22;64115;50.170;8.242;2023-01-20T13:32:31;0.40;99.90
8261;DHT22;64115;50.170;8.242;2023-01-20T13:35:00;0.50;99.90
8261;DHT22;64115;50.170;8.242;2023-01-20T13:37:35;0.50;99.90
8261;DHT22;64115;50.170;8.242;2023-01-20T13:40:03;0.50;99.90
8261;DHT22;64115;50.170;8.242;2023-01-20T13:42:48;0.50;99.90
8261;DHT22;64115;50.170;8.242;2023-01-20T13:45:19;0.50;99.90
8261;DHT22;64115;50.170;8.242;2023-01-20T13:47:53;0.50;99.90
8261;DHT22;64115;50.170;8.242;2023-01-20T13:50:24;0.40;99.90
8261;DHT22;64115;50.170;8.242;2023-01-20T13:53:27;0.30;99.90
8261;DHT22;64115;50.170;8.242;2023-01-20T13:55:58;0.20;99.90
8261;DHT22;64115;50.170;8.242;2023-01-20T13:58:27;0.10;99.90
8261;DHT22;64115;50.170;8.242;2023-01-20T14:00:56;0.10;99.90
8261;DHT22;64115;50.170;8.242;2023-01-20T14:03:27;0.10;99.90
8261;DHT22;64115;50.170;8.242;2023-01-20T14:08:39;0.00;99.90
8261;DHT22;64115;50.170;8.242;2023-01-20T14:11:13;-0.10;99.90
8261;DHT22;64115;50.170;8.242;2023-01-20T14:13:56;-0.10;99.90
8261;DHT22;64115;50.170;8.242;2023-01-20T14:16:25;-0.20;99.90
8261;DHT22;64115;50.170;8.242;2023-01-20T14:18:56;-0.20;99.90
8261;DHT22;64115;50.170;8.242;2023-01-20T14:21:25;-0.10;99.90
8261;DHT22;64115;50.170;8.242;2023-01-20T14:23:53;-0.10;99.90
8261;DHT22;64115;50.170;8.242;2023-01-20T14:26:22;-0.20;99.90
8261;DHT22;64115;50.170;8.242;2023-01-20T14:28:51;-0.20;99.90
8261;DHT22;64115;50.170;8.242;2023-01-20T14:31:31;-0.10;99.90
8261;DHT22;64115;50.170;8.242;2023-01-20T14:34:23;-0.20;99.90
8261;DHT22;64115;50.170;8.242;2023-01-20T14:36:51;-0.20;99.90
8261;DHT22;64115;50.170;8.242;2023-01-20T14:39:21;-0.20;99.90
8261;DHT22;64115;50.170;8.242;2023-01-20T14:41:49;-0.20;99.90
8261;DHT22;64115;50.170;8.242;2023-01-20T14:44:20;-0.30;99.90
8261;DHT22;64115;50.170;8.242;2023-01-20T14:46:51;-0.30;99.90
8261;DHT22;64115;50.170;8.242;2023-01-20T14:49:21;-0.20;99.90
8261;DHT22;64115;50.170;8.242;2023-01-20T14:51:50;-0.20;99.90
8261;DHT22;64115;50.170;8.242;2023-01-20T14:54:34;-0.30;99.90
8261;DHT22;64115;50.170;8.242;2023-01-20T14:57:27;-0.30;99.90
8261;DHT22;64115;50.170;8.242;2023-01-20T15:00:09;-0.30;99.90
8261;DHT22;64115;50.170;8.242;2023-01-20T15:02:38;-0.30;99.90
8261;DHT22;64115;50.170;8.242;2023-01-20T15:05:20;-0.20;99.90
8261;DHT22;64115;50.170;8.242;2023-01-20T15:07:48;-0.20;99.90
8261;DHT22;64115;50.170;8.242;2023-01-20T15:10:16;-0.20;99.90
8261;DHT22;64115;50.170;8.242;2023-01-20T15:12:52;-0.20;99.90
8261;DHT22;64115;50.170;8.242;2023-01-20T15:15:25;-0.20;99.90
8261;DHT22;64115;50.170;8.242;2023-01-20T15:18:18;-0.10;99.90
8261;DHT22;64115;50.170;8.242;2023-01-20T15:20:52;-0.10;99.90
8261;DHT22;64115;50.170;8.242;2023-01-20T15:23:22;-0.10;99.90
8261;DHT22;64115;50.170;8.242;2023-01-20T15:26:05;-0.20;99.90
8261;DHT22;64115;50.170;8.242;2023-01-20T15:28:36;-0.10;99.90
8261;DHT22;64115;50.170;8.242;2023-01-20T15:31:11;-0.10;99.90
8261;DHT22;64115;50.170;8.242;2023-01-20T15:33:39;-0.30;99.90
8261;DHT22;64115;50.170;8.242;2023-01-20T15:36:21;-0.30;99.90
8261;DHT22;64115;50.170;8.242;2023-01-20T15:38:49;-0.20;99.90
8261;DHT22;64115;50.170;8.242;2023-01-20T15:41:16;-0.30;99.90
8261;DHT22;64115;50.170;8.242;2023-01-20T15:43:43;-0.30;99.90
8261;DHT22;64115;50.170;8.242;2023-01-20T15:46:12;-0.20;99.90
8261;DHT22;64115;50.170;8.242;2023-01-20T15:48:39;-0.20;99.90
8261;DHT22;64115;50.170;8.242;2023-01-20T15:51:12;-0.20;99.90
8261;DHT22;64115;50.170;8.242;2023-01-20T15:53:39;-0.30;99.90
8261;DHT22;64115;50.170;8.242;2023-01-20T15:56:13;-0.30;99.90
8261;DHT22;64115;50.170;8.242;2023-01-20T15:58:40;-0.20;99.90
8261;DHT22;64115;50.170;8.242;2023-01-20T16:01:07;-0.30;99.90
8261;DHT22;64115;50.170;8.242;2023-01-20T16:03:35;-0.30;99.90
8261;DHT22;64115;50.170;8.242;2023-01-20T16:06:02;-0.30;99.90
8261;DHT22;64115;50.170;8.242;2023-01-20T16:08:37;-0.30;99.90
8261;DHT22;64115;50.170;8.242;2023-01-20T16:11:04;-0.40;99.90
8261;DHT22;64115;50.170;8.242;2023-01-20T16:13:32;-0.40;99.90
8261;DHT22;64115;50.170;8.242;2023-01-20T16:15:59;-0.30;99.90
8261;DHT22;64115;50.170;8.242;2023-01-20T16:18:26;-0.40;99.90
8261;DHT22;64115;50.170;8.242;2023-01-20T16:20:55;-0.40;99.90
8261;DHT22;64115;50.170;8.242;2023-01-20T16:23:22;-0.40;99.90
8261;DHT22;64115;50.170;8.242;2023-01-20T16:25:51;-0.40;99.90
8261;DHT22;64115;50.170;8.242;2023-01-20T16:28:20;-0.50;99.90
8261;DHT22;64115;50.170;8.242;2023-01-20T16:30:49;-0.50;99.90